createdAt,value
2022-10-19T00:01:20.116Z,12.85
2022-10-19T00:03:50.869Z,12.86
2022-10-19T00:06:39.066Z,12.89
2022-10-19T00:09:10.342Z,12.88
2022-10-19T00:11:42.095Z,12.84
2022-10-19T00:14:17.745Z,12.82
2022-10-19T00:16:48.556Z,12.82
2022-10-19T00:19:23.513Z,12.81
2022-10-19T00:21:52.104Z,12.80
2022-10-19T00:24:20.816Z,12.80
2022-10-19T00:26:48.759Z,12.81
2022-10-19T00:29:17.505Z,12.79
2022-10-19T00:31:45.506Z,12.74
2022-10-19T00:34:13.571Z,12.69
2022-10-19T00:36:41.950Z,12.64
2022-10-19T00:39:15.893Z,12.59
2022-10-19T00:41:46.102Z,12.53
2022-10-19T00:44:14.047Z,12.48
2022-10-19T00:46:48.984Z,12.46
2022-10-19T00:49:24.926Z,12.42
2022-10-19T00:52:06.291Z,12.41
2022-10-19T00:54:37.460Z,12.37
2022-10-19T00:57:07.984Z,12.37
2022-10-19T00:59:37.080Z,12.36
2022-10-19T01:02:06.995Z,12.36
2022-10-19T01:04:37.931Z,12.36
2022-10-19T01:07:08.329Z,12.36
2022-10-19T01:09:36.322Z,12.37
2022-10-19T01:12:09.514Z,12.38
2022-10-19T01:15:20.389Z,12.39
2022-10-19T01:17:54.297Z,12.34
2022-10-19T01:20:46.977Z,12.33
2022-10-19T01:23:37.029Z,12.31
2022-10-19T01:26:27.118Z,12.30
2022-10-19T01:29:29.262Z,12.30
2022-10-19T01:32:11.638Z,12.27
2022-10-19T01:34:51.230Z,12.27
2022-10-19T01:37:39.269Z,12.28
2022-10-19T01:40:10.413Z,12.26
2022-10-19T01:45:33.792Z,12.24
2022-10-19T01:48:10.402Z,12.23
2022-10-19T01:50:49.130Z,12.22
2022-10-19T01:53:19.588Z,12.24
2022-10-19T01:55:51.781Z,12.25
2022-10-19T01:58:26.736Z,12.28
2022-10-19T02:00:58.747Z,12.30
2022-10-19T02:03:27.774Z,12.31
2022-10-19T02:05:56.962Z,12.32
2022-10-19T02:08:30.664Z,12.32
2022-10-19T02:11:00.278Z,12.32
2022-10-19T02:13:29.774Z,12.33
2022-10-19T02:16:00.928Z,12.35
2022-10-19T02:18:33.292Z,12.37
2022-10-19T02:21:06.246Z,12.36
2022-10-19T02:23:34.652Z,12.36
2022-10-19T02:26:03.746Z,12.37
2022-10-19T02:28:32.131Z,12.37
2022-10-19T02:31:01.216Z,12.38
2022-10-19T02:33:30.007Z,12.39
2022-10-19T02:35:59.071Z,12.39
2022-10-19T02:38:28.411Z,12.40
2022-10-19T02:41:17.163Z,12.40
2022-10-19T02:43:50.038Z,12.36
2022-10-19T02:46:25.791Z,12.37
2022-10-19T02:48:55.497Z,12.37
2022-10-19T02:51:36.597Z,12.38
2022-10-19T02:54:06.998Z,12.38
2022-10-19T02:56:35.627Z,12.37
2022-10-19T02:59:03.753Z,12.37
2022-10-19T03:01:31.856Z,12.37
2022-10-19T03:03:59.798Z,12.35
2022-10-19T03:06:27.779Z,12.34
2022-10-19T03:08:55.830Z,12.32
2022-10-19T03:11:23.797Z,12.30
2022-10-19T03:13:51.766Z,12.30
2022-10-19T03:16:19.837Z,12.29
2022-10-19T03:18:51.324Z,12.27
2022-10-19T03:21:20.043Z,12.21
2022-10-19T03:23:47.937Z,12.18
2022-10-19T03:26:17.662Z,12.16
2022-10-19T03:28:46.014Z,12.13
2022-10-19T03:31:14.149Z,12.11
2022-10-19T03:33:42.213Z,12.09
2022-10-19T03:36:19.759Z,12.07
2022-10-19T03:39:00.631Z,12.05
2022-10-19T03:41:31.310Z,12.03
2022-10-19T03:46:32.346Z,12.01
2022-10-19T03:49:00.392Z,12.02
2022-10-19T03:51:30.920Z,12.01
2022-10-19T03:54:07.489Z,12.01
2022-10-19T03:56:36.477Z,12.00
2022-10-19T03:59:06.700Z,11.99
2022-10-19T04:01:41.037Z,11.99
2022-10-19T04:04:15.910Z,11.97
2022-10-19T04:06:47.070Z,11.94
2022-10-19T04:09:18.949Z,11.92
2022-10-19T04:11:47.221Z,11.90
2022-10-19T04:14:26.792Z,11.91
2022-10-19T04:17:04.265Z,11.90
2022-10-19T04:19:32.424Z,11.88
2022-10-19T04:22:00.495Z,11.88
2022-10-19T04:24:29.074Z,11.88
2022-10-19T04:26:57.353Z,11.84
2022-10-19T04:29:29.696Z,11.83
2022-10-19T04:31:59.632Z,11.83
2022-10-19T04:34:27.914Z,11.85
2022-10-19T04:36:55.881Z,11.86
2022-10-19T04:39:23.858Z,11.90
2022-10-19T04:41:51.921Z,11.94
2022-10-19T04:44:19.940Z,11.95
2022-10-19T04:46:48.069Z,11.92
2022-10-19T04:49:19.395Z,11.86
2022-10-19T04:51:48.400Z,11.80
2022-10-19T04:54:16.376Z,11.76
2022-10-19T04:56:44.445Z,11.69
2022-10-19T04:59:12.516Z,11.62
2022-10-19T05:01:46.443Z,11.54
2022-10-19T05:04:15.516Z,11.49
2022-10-19T05:06:43.416Z,11.45
2022-10-19T05:09:11.638Z,11.40
2022-10-19T05:11:39.623Z,11.37
2022-10-19T05:14:07.715Z,11.37
2022-10-19T05:16:35.984Z,11.38
2022-10-19T05:19:04.139Z,11.38
2022-10-19T05:21:32.225Z,11.39
2022-10-19T05:24:00.424Z,11.40
2022-10-19T05:26:29.246Z,11.39
2022-10-19T05:29:02.012Z,11.38
2022-10-19T05:31:33.005Z,11.38
2022-10-19T05:34:01.438Z,11.37
2022-10-19T05:36:38.400Z,11.37
2022-10-19T05:39:13.895Z,11.37
2022-10-19T05:41:46.371Z,11.37
2022-10-19T05:44:20.290Z,11.36
2022-10-19T05:46:49.137Z,11.38
2022-10-19T05:49:19.796Z,11.39
2022-10-19T05:51:48.317Z,11.38
2022-10-19T05:54:16.752Z,11.38
2022-10-19T05:56:44.827Z,11.39
2022-10-19T05:59:16.378Z,11.39
2022-10-19T06:01:45.442Z,11.37
2022-10-19T06:04:15.098Z,11.39
2022-10-19T06:06:43.358Z,11.42
2022-10-19T06:09:11.920Z,11.45
2022-10-19T06:11:41.852Z,11.48
2022-10-19T06:14:15.033Z,11.47
2022-10-19T06:16:46.088Z,11.47
2022-10-19T06:19:14.461Z,11.50
2022-10-19T06:21:45.987Z,11.52
2022-10-19T06:24:14.391Z,11.54
2022-10-19T06:26:42.870Z,11.55
2022-10-19T06:29:11.268Z,11.56
2022-10-19T06:31:39.314Z,11.58
2022-10-19T06:34:07.830Z,11.59
2022-10-19T06:36:35.868Z,11.61
2022-10-19T06:39:05.240Z,11.64
2022-10-19T06:41:34.815Z,11.68
2022-10-19T06:44:17.083Z,11.69
2022-10-19T06:46:45.250Z,11.67
2022-10-19T06:49:14.553Z,11.68
2022-10-19T06:51:42.887Z,11.66
2022-10-19T06:54:10.794Z,11.66
2022-10-19T06:56:38.918Z,11.66
2022-10-19T06:59:06.936Z,11.67
2022-10-19T07:01:34.906Z,11.65
2022-10-19T07:04:03.282Z,11.63
2022-10-19T07:06:31.268Z,11.62
2022-10-19T07:08:59.523Z,11.64
2022-10-19T07:11:27.389Z,11.65
2022-10-19T07:13:55.537Z,11.67
2022-10-19T07:16:23.840Z,11.71
2022-10-19T07:18:53.553Z,11.79
2022-10-19T07:21:23.243Z,11.86
2022-10-19T07:23:51.556Z,11.90
2022-10-19T07:26:23.605Z,11.95
2022-10-19T07:28:51.663Z,12.00
2022-10-19T07:31:22.734Z,12.05
2022-10-19T07:33:59.479Z,12.09
2022-10-19T07:36:29.285Z,12.17
2022-10-19T07:38:57.870Z,12.19
2022-10-19T07:41:26.646Z,12.21
2022-10-19T07:43:55.242Z,12.23
2022-10-19T07:46:26.536Z,12.25
2022-10-19T07:48:55.068Z,12.29
2022-10-19T07:51:23.598Z,12.28
2022-10-19T07:53:51.619Z,12.32
2022-10-19T07:56:24.196Z,12.34
2022-10-19T07:58:54.728Z,12.33
2022-10-19T08:01:31.433Z,12.31
2022-10-19T08:06:49.654Z,12.22
2022-10-19T08:09:39.993Z,12.21
2022-10-19T08:12:06.238Z,12.14
2022-10-19T08:14:34.448Z,12.13
2022-10-19T08:17:02.969Z,12.16
2022-10-19T08:19:31.208Z,12.20
2022-10-19T08:21:59.375Z,12.28
2022-10-19T08:24:27.652Z,12.36
2022-10-19T08:26:55.789Z,12.44
2022-10-19T08:29:25.564Z,12.51
2022-10-19T08:31:55.860Z,12.56
2022-10-19T08:34:23.751Z,12.64
2022-10-19T08:36:51.719Z,12.68
2022-10-19T08:39:19.661Z,12.66
2022-10-19T08:42:02.500Z,12.62
2022-10-19T08:45:01.168Z,12.57
2022-10-19T08:47:44.644Z,12.46
2022-10-19T08:50:25.673Z,12.31
2022-10-19T08:53:03.522Z,12.20
2022-10-19T08:55:39.741Z,12.07
2022-10-19T08:58:35.144Z,11.96
2022-10-19T09:01:17.110Z,11.81
2022-10-19T09:03:56.149Z,11.73
2022-10-19T09:06:29.572Z,11.68
2022-10-19T09:08:58.711Z,11.69
2022-10-19T09:11:32.955Z,11.71
2022-10-19T09:14:25.760Z,11.75
2022-10-19T09:17:00.862Z,11.77
2022-10-19T09:19:31.900Z,11.82
2022-10-19T09:22:06.218Z,11.85
2022-10-19T09:24:54.774Z,11.89
2022-10-19T09:27:25.528Z,11.78
2022-10-19T09:29:58.973Z,11.65
2022-10-19T09:32:29.624Z,11.49
2022-10-19T09:35:02.608Z,11.38
2022-10-19T09:37:32.819Z,11.31
2022-10-19T09:40:01.004Z,11.26
2022-10-19T09:42:34.721Z,11.26
2022-10-19T09:45:35.086Z,11.31
2022-10-19T09:48:14.246Z,11.30
2022-10-19T09:50:44.771Z,11.34
2022-10-19T09:53:21.115Z,11.41
2022-10-19T09:56:01.037Z,11.44
2022-10-19T09:58:32.991Z,11.43
2022-10-19T10:01:03.288Z,11.39
2022-10-19T10:03:43.709Z,11.35
2022-10-19T10:06:17.380Z,11.26
2022-10-19T10:08:50.994Z,11.22
2022-10-19T10:11:27.392Z,11.20
2022-10-19T10:13:57.125Z,11.19
2022-10-19T10:16:30.563Z,11.24
2022-10-19T10:19:01.990Z,11.30
2022-10-19T10:21:34.925Z,11.34
2022-10-19T10:24:11.835Z,11.34
2022-10-19T10:26:45.476Z,11.33
2022-10-19T10:29:25.331Z,11.36
2022-10-19T10:32:03.694Z,11.43
2022-10-19T10:34:49.299Z,11.51
2022-10-19T10:37:42.074Z,11.56
2022-10-19T10:40:26.787Z,11.59
2022-10-19T10:42:58.709Z,11.62
2022-10-19T10:45:31.600Z,11.66
2022-10-19T10:48:17.927Z,11.71
2022-10-19T10:50:46.351Z,11.71
2022-10-19T10:53:36.087Z,11.69
2022-10-19T10:56:06.469Z,11.64
2022-10-19T10:58:48.398Z,11.59
2022-10-19T11:01:27.247Z,11.54
2022-10-19T11:04:11.477Z,11.52
2022-10-19T11:06:47.641Z,11.48
2022-10-19T11:09:34.246Z,11.51
2022-10-19T11:12:09.243Z,11.52
2022-10-19T11:14:49.765Z,11.59
2022-10-19T11:17:28.675Z,11.63
2022-10-19T11:19:56.841Z,11.66
2022-10-19T11:22:37.056Z,11.70
2022-10-19T11:25:25.080Z,11.75
2022-10-19T11:28:36.311Z,11.76
2022-10-19T11:31:17.188Z,11.72
2022-10-19T11:33:55.285Z,11.71
2022-10-19T11:36:35.442Z,11.65
2022-10-19T11:39:21.839Z,11.60
2022-10-19T11:42:25.382Z,11.58
2022-10-19T11:45:01.989Z,11.57
2022-10-19T11:47:40.158Z,11.69
2022-10-19T11:50:32.022Z,11.75
2022-10-19T11:53:05.953Z,11.74
2022-10-19T11:55:51.638Z,11.71
2022-10-19T11:58:55.142Z,11.59
2022-10-19T12:01:29.047Z,11.47
2022-10-19T12:04:21.798Z,11.46
2022-10-19T12:07:24.827Z,11.43
2022-10-19T12:10:17.122Z,11.38
2022-10-19T12:12:49.699Z,11.35
2022-10-19T12:15:28.637Z,11.38
2022-10-19T12:18:03.175Z,11.38
2022-10-19T12:20:54.564Z,11.42
2022-10-19T12:23:36.510Z,11.41
2022-10-19T12:26:07.749Z,11.44
2022-10-19T12:28:38.926Z,11.43
2022-10-19T12:31:08.455Z,11.45
2022-10-19T12:33:41.510Z,11.44
2022-10-19T12:36:09.461Z,11.44
2022-10-19T12:38:59.710Z,11.46
2022-10-19T12:41:33.995Z,11.45
2022-10-19T12:44:21.683Z,11.45
2022-10-19T12:46:56.438Z,11.46
2022-10-19T12:49:26.808Z,11.50
2022-10-19T12:51:56.710Z,11.53
2022-10-19T12:54:30.292Z,11.55
2022-10-19T12:57:01.148Z,11.56
2022-10-19T12:59:32.159Z,11.55
2022-10-19T13:02:02.329Z,11.58
2022-10-19T13:04:32.721Z,11.64
2022-10-19T13:07:08.398Z,11.61
2022-10-19T13:09:48.365Z,11.59
2022-10-19T13:12:19.993Z,11.56
2022-10-19T13:14:52.515Z,11.50
2022-10-19T13:17:44.201Z,11.49
2022-10-19T13:20:15.059Z,11.44
2022-10-19T13:23:06.051Z,11.42
2022-10-19T13:25:41.798Z,11.37
2022-10-19T13:28:10.123Z,11.39
2022-10-19T13:30:44.159Z,11.42
2022-10-19T13:33:31.620Z,11.44
2022-10-19T13:35:59.747Z,11.48
2022-10-19T13:38:49.474Z,11.53
2022-10-19T13:41:38.669Z,11.52
2022-10-19T13:44:27.050Z,11.51
2022-10-19T13:47:33.964Z,11.50
2022-10-19T13:50:05.396Z,11.47
2022-10-19T13:52:52.485Z,11.48
2022-10-19T13:55:47.164Z,11.44
2022-10-19T13:58:24.515Z,11.23
2022-10-19T14:01:12.628Z,11.08
2022-10-19T14:04:20.927Z,10.99
2022-10-19T14:07:00.263Z,10.82
2022-10-19T14:10:03.564Z,10.72
2022-10-19T14:12:36.830Z,10.58
2022-10-19T14:15:23.068Z,10.53
2022-10-19T14:17:51.224Z,10.50
2022-10-19T14:20:36.706Z,10.44
2022-10-19T14:23:25.149Z,10.40
2022-10-19T14:26:02.047Z,10.35
2022-10-19T14:28:31.089Z,10.36
2022-10-19T14:31:02.055Z,10.42
2022-10-19T14:33:38.114Z,10.47
2022-10-19T14:36:08.334Z,10.48
2022-10-19T14:38:39.748Z,10.53
2022-10-19T14:41:19.638Z,10.58
2022-10-19T14:43:50.388Z,10.60
2022-10-19T14:46:18.555Z,10.65
2022-10-19T14:48:50.892Z,10.70
2022-10-19T14:51:30.551Z,10.74
2022-10-19T14:54:05.994Z,10.75
2022-10-19T14:57:07.138Z,10.78
2022-10-19T14:59:46.622Z,10.74
2022-10-19T15:02:19.151Z,10.74
2022-10-19T15:04:47.817Z,10.74
2022-10-19T15:07:26.963Z,10.76
2022-10-19T15:09:58.314Z,10.76
2022-10-19T15:12:34.201Z,10.76
2022-10-19T15:15:08.051Z,10.76
2022-10-19T15:17:38.227Z,10.73
2022-10-19T15:20:49.026Z,10.75
2022-10-19T15:23:45.590Z,10.70
2022-10-19T15:26:20.553Z,10.68
2022-10-19T15:28:49.424Z,10.69
2022-10-19T15:31:35.385Z,10.71
2022-10-19T15:34:05.640Z,10.70
2022-10-19T15:36:33.740Z,10.69
2022-10-19T15:39:18.424Z,10.68
2022-10-19T15:41:53.520Z,10.65
2022-10-19T15:44:42.523Z,10.67
2022-10-19T15:47:29.069Z,10.65
2022-10-19T15:49:58.621Z,10.67
2022-10-19T15:52:29.409Z,10.66
2022-10-19T15:54:59.535Z,10.68
2022-10-19T15:57:34.118Z,10.69
2022-10-19T16:00:15.221Z,10.69
2022-10-19T16:02:43.515Z,10.69
2022-10-19T16:05:11.868Z,10.72
2022-10-19T16:07:41.577Z,10.71
2022-10-19T16:10:17.963Z,10.69
2022-10-19T16:12:45.919Z,10.62
2022-10-19T16:15:22.494Z,10.56
2022-10-19T16:17:53.650Z,10.52
2022-10-19T16:20:22.627Z,10.49
2022-10-19T16:22:50.796Z,10.49
2022-10-19T16:25:19.194Z,10.49
2022-10-19T16:27:47.277Z,10.48
2022-10-19T16:30:15.317Z,10.46
2022-10-19T16:32:43.398Z,10.46
2022-10-19T16:35:11.845Z,10.44
2022-10-19T16:37:39.937Z,10.42
2022-10-19T16:40:08.847Z,10.43
2022-10-19T16:42:37.272Z,10.44
2022-10-19T16:45:06.504Z,10.42
2022-10-19T16:47:34.467Z,10.40
2022-10-19T16:50:04.690Z,10.40
2022-10-19T16:52:33.714Z,10.37
2022-10-19T16:55:02.778Z,10.37
2022-10-19T16:57:30.882Z,10.38
2022-10-19T16:59:58.963Z,10.37
2022-10-19T17:02:27.312Z,10.37
2022-10-19T17:04:55.266Z,10.38
2022-10-19T17:07:23.662Z,10.37
2022-10-19T17:09:54.685Z,10.39
2022-10-19T17:12:23.059Z,10.42
2022-10-19T17:14:51.543Z,10.45
2022-10-19T17:17:19.636Z,10.47
2022-10-19T17:19:48.868Z,10.50
2022-10-19T17:22:17.050Z,10.53
2022-10-19T17:24:46.997Z,10.54
2022-10-19T17:27:15.094Z,10.54
2022-10-19T17:29:43.343Z,10.54
2022-10-19T17:32:11.222Z,10.54
2022-10-19T17:34:39.267Z,10.53
2022-10-19T17:37:07.355Z,10.50
2022-10-19T17:39:35.373Z,10.48
2022-10-19T17:42:05.100Z,10.48
2022-10-19T17:44:33.037Z,10.48
2022-10-19T17:47:01.396Z,10.49
2022-10-19T17:49:30.105Z,10.48
2022-10-19T17:51:58.653Z,10.48
2022-10-19T17:54:27.094Z,10.49
2022-10-19T17:56:55.605Z,10.52
2022-10-19T17:59:34.858Z,10.53
2022-10-19T18:02:06.505Z,10.54
2022-10-19T18:07:04.200Z,10.57
2022-10-19T18:09:32.133Z,10.58
2022-10-19T18:12:04.659Z,10.59
2022-10-19T18:14:35.499Z,10.58
2022-10-19T18:17:03.527Z,10.58
2022-10-19T18:19:32.288Z,10.59
2022-10-19T18:22:00.307Z,10.60
2022-10-19T18:24:28.717Z,10.61
2022-10-19T18:26:56.814Z,10.62
2022-10-19T18:29:26.612Z,10.63
2022-10-19T18:31:55.159Z,10.61
2022-10-19T18:34:25.586Z,10.58
2022-10-19T18:36:54.571Z,10.56
2022-10-19T18:39:22.800Z,10.55
2022-10-19T18:41:54.808Z,10.54
2022-10-19T18:44:27.122Z,10.57
2022-10-19T18:46:57.051Z,10.60
2022-10-19T18:49:25.799Z,10.64
2022-10-19T18:51:55.725Z,10.65
2022-10-19T18:54:28.112Z,10.66
2022-10-19T18:56:56.335Z,10.66
2022-10-19T18:59:24.620Z,10.61
2022-10-19T19:01:52.687Z,10.53
2022-10-19T19:04:20.813Z,10.49
2022-10-19T19:06:48.877Z,10.46
2022-10-19T19:09:19.005Z,10.44
2022-10-19T19:11:47.272Z,10.40
2022-10-19T19:14:18.109Z,10.38
2022-10-19T19:16:46.692Z,10.36
2022-10-19T19:19:16.811Z,10.32
2022-10-19T19:21:45.904Z,10.26
2022-10-19T19:24:17.046Z,10.18
2022-10-19T19:26:51.546Z,10.12
2022-10-19T19:29:21.073Z,10.08
2022-10-19T19:31:49.244Z,10.04
2022-10-19T19:34:17.624Z,10.01
2022-10-19T19:36:49.102Z,9.99
2022-10-19T19:39:20.844Z,9.96
2022-10-19T19:41:49.731Z,9.93
2022-10-19T19:44:18.309Z,9.89
2022-10-19T19:46:46.782Z,9.85
2022-10-19T19:49:14.852Z,9.80
2022-10-19T19:51:42.923Z,9.75
2022-10-19T19:54:11.724Z,9.68
2022-10-19T19:56:42.250Z,9.62
2022-10-19T19:59:12.798Z,9.55
2022-10-19T20:01:41.357Z,9.48
2022-10-19T20:04:10.099Z,9.40
2022-10-19T20:06:40.970Z,9.35
2022-10-19T20:09:10.822Z,9.28
2022-10-19T20:11:42.322Z,9.21
2022-10-19T20:14:12.164Z,9.14
2022-10-19T20:16:40.830Z,9.08
2022-10-19T20:19:11.821Z,9.03
2022-10-19T20:21:41.053Z,8.96
2022-10-19T20:24:09.208Z,8.90
2022-10-19T20:26:37.972Z,8.84
2022-10-19T20:29:06.477Z,8.78
2022-10-19T20:31:39.743Z,8.71
2022-10-19T20:34:11.058Z,8.64
2022-10-19T20:36:39.219Z,8.59
2022-10-19T20:39:07.254Z,8.53
2022-10-19T20:41:35.871Z,8.50
2022-10-19T20:44:03.853Z,8.46
2022-10-19T20:46:32.184Z,8.42
2022-10-19T20:49:02.130Z,8.39
2022-10-19T20:51:36.747Z,8.34
2022-10-19T20:54:07.895Z,8.30
2022-10-19T20:56:38.035Z,8.25
2022-10-19T20:59:15.304Z,8.20
2022-10-19T21:01:44.471Z,8.13
2022-10-19T21:04:14.402Z,8.08
2022-10-19T21:06:48.611Z,8.03
2022-10-19T21:09:20.180Z,7.99
2022-10-19T21:11:50.447Z,7.97
2022-10-19T21:14:25.237Z,7.94
2022-10-19T21:17:00.547Z,7.91
2022-10-19T21:19:29.744Z,7.89
2022-10-19T21:22:03.269Z,7.88
2022-10-19T21:24:34.721Z,7.86
2022-10-19T21:27:05.463Z,7.86
2022-10-19T21:29:34.291Z,7.85
2022-10-19T21:32:03.124Z,7.83
2022-10-19T21:34:32.332Z,7.82
2022-10-19T21:37:00.596Z,7.82
2022-10-19T21:39:29.077Z,7.81
2022-10-19T21:41:58.171Z,7.80
2022-10-19T21:44:26.356Z,7.80
2022-10-19T21:46:54.313Z,7.81
2022-10-19T21:49:22.204Z,7.82
2022-10-19T21:51:55.330Z,7.84
2022-10-19T21:54:25.204Z,7.86
2022-10-19T21:56:55.887Z,7.88
2022-10-19T21:59:25.008Z,7.90
2022-10-19T22:01:55.349Z,7.92
2022-10-19T22:04:24.111Z,7.92
2022-10-19T22:06:52.298Z,7.93
2022-10-19T22:09:23.338Z,7.94
2022-10-19T22:11:51.613Z,7.93
2022-10-19T22:14:19.784Z,7.95
2022-10-19T22:16:47.852Z,7.96
2022-10-19T22:19:16.023Z,7.98
2022-10-19T22:21:43.991Z,8.00
2022-10-19T22:24:14.935Z,8.01
2022-10-19T22:26:46.667Z,8.03
2022-10-19T22:29:15.129Z,7.99
2022-10-19T22:31:43.371Z,7.94
2022-10-19T22:34:15.022Z,7.89
2022-10-19T22:36:44.065Z,7.85
2022-10-19T22:39:12.669Z,7.85
2022-10-19T22:41:40.739Z,7.85
2022-10-19T22:44:08.625Z,7.84
2022-10-19T22:46:36.577Z,7.85
2022-10-19T22:49:04.591Z,7.87
2022-10-19T22:51:33.020Z,7.89
2022-10-19T22:54:01.241Z,7.95
2022-10-19T22:56:29.779Z,8.01
2022-10-19T22:59:02.353Z,8.05
2022-10-19T23:01:30.429Z,8.09
2022-10-19T23:03:58.488Z,8.12
2022-10-19T23:06:26.791Z,8.14
2022-10-19T23:08:54.830Z,8.16
2022-10-19T23:11:23.285Z,8.19
2022-10-19T23:13:51.286Z,8.20
2022-10-19T23:16:19.288Z,8.21
2022-10-19T23:18:47.328Z,8.22
2022-10-19T23:21:16.373Z,8.21
2022-10-19T23:23:44.514Z,8.19
2022-10-19T23:26:15.532Z,8.19
2022-10-19T23:28:44.976Z,8.19
2022-10-19T23:31:15.974Z,8.20
2022-10-19T23:33:44.697Z,8.19
2022-10-19T23:36:14.682Z,8.20
2022-10-19T23:38:44.900Z,8.20
2022-10-19T23:41:13.468Z,8.19
2022-10-19T23:43:41.917Z,8.17
2022-10-19T23:46:10.255Z,8.17
2022-10-19T23:48:38.688Z,8.16
2022-10-19T23:51:09.962Z,8.16
2022-10-19T23:53:41.423Z,8.14
2022-10-19T23:56:16.002Z,8.11
2022-10-19T23:58:44.664Z,8.07
